Byron Hills, Illinois
Current Conditions -  °F | °C
As of 6:40 AM on Monday 24 Nov 2014 (Local Time) from KDVN Reporting Station
Moderate Snow Moderate Snow  
Wind Chill: 17°   Ceiling: 400
Heat Index: 31°   Visibility: 0.5mi
Dew Point: 28°   Wind: 24mph
Humidity: 89%   Direction: 280°W
Pressure: 29.27"   Gusts: 31mph
Location:  41.595°N, 90.2974°W
Report Text: KDVN 241240Z AUTO 28021G27KT 1/2SM SN FZFG VV004 M01/M02 A2927 RMK AO2 PK WND 29030/1205 P0005 T10061022
Loading
Personal Weather Stations






























Interactive Weather Map New forecast layout! Learn more

10-Day Weather Forecast

Advertisements
Track Severe Weather on mobile